sensor_id;sensor_type;location;lat;lon;timestamp;P1;durP1;ratioP1;P2;durP2;ratioP2
33824;SDS011;20127;48.962;8.342;2023-06-22T00:00:28;7.97;;;6.13;;
33824;SDS011;20127;48.962;8.342;2023-06-22T00:03:30;8.82;;;6.88;;
33824;SDS011;20127;48.962;8.342;2023-06-22T00:06:31;8.98;;;7.15;;
33824;SDS011;20127;48.962;8.342;2023-06-22T00:09:35;12.70;;;6.15;;
33824;SDS011;20127;48.962;8.342;2023-06-22T00:12:37;7.32;;;6.63;;
33824;SDS011;20127;48.962;8.342;2023-06-22T00:15:40;8.85;;;6.32;;
33824;SDS011;20127;48.962;8.342;2023-06-22T00:18:42;7.65;;;6.00;;
33824;SDS011;20127;48.962;8.342;2023-06-22T00:21:47;7.38;;;6.00;;
33824;SDS011;20127;48.962;8.342;2023-06-22T00:24:54;9.18;;;7.72;;
33824;SDS011;20127;48.962;8.342;2023-06-22T00:27:56;7.03;;;6.03;;
33824;SDS011;20127;48.962;8.342;2023-06-22T00:30:57;9.88;;;6.80;;
33824;SDS011;20127;48.962;8.342;2023-06-22T00:34:03;9.23;;;7.50;;
33824;SDS011;20127;48.962;8.342;2023-06-22T00:37:06;18.77;;;8.05;;
33824;SDS011;20127;48.962;8.342;2023-06-22T00:40:10;11.55;;;8.05;;
33824;SDS011;20127;48.962;8.342;2023-06-22T00:43:12;11.35;;;7.93;;
33824;SDS011;20127;48.962;8.342;2023-06-22T00:46:13;15.82;;;8.70;;
33824;SDS011;20127;48.962;8.342;2023-06-22T00:49:16;9.98;;;8.98;;
33824;SDS011;20127;48.962;8.342;2023-06-22T00:52:18;12.98;;;11.00;;
33824;SDS011;20127;48.962;8.342;2023-06-22T00:55:23;13.40;;;9.90;;
33824;SDS011;20127;48.962;8.342;2023-06-22T00:58:25;19.17;;;11.75;;
33824;SDS011;20127;48.962;8.342;2023-06-22T01:01:27;15.02;;;11.43;;
33824;SDS011;20127;48.962;8.342;2023-06-22T01:04:33;16.92;;;13.02;;
33824;SDS011;20127;48.962;8.342;2023-06-22T01:07:38;13.33;;;11.30;;
33824;SDS011;20127;48.962;8.342;2023-06-22T01:10:50;22.45;;;12.68;;
33824;SDS011;20127;48.962;8.342;2023-06-22T01:13:57;22.05;;;14.93;;
33824;SDS011;20127;48.962;8.342;2023-06-22T01:17:06;15.93;;;11.38;;
33824;SDS011;20127;48.962;8.342;2023-06-22T01:20:10;17.67;;;12.85;;
33824;SDS011;20127;48.962;8.342;2023-06-22T01:23:17;18.90;;;13.70;;
33824;SDS011;20127;48.962;8.342;2023-06-22T01:26:35;16.75;;;12.65;;
33824;SDS011;20127;48.962;8.342;2023-06-22T01:29:42;17.10;;;12.57;;
33824;SDS011;20127;48.962;8.342;2023-06-22T01:32:45;17.92;;;13.35;;
33824;SDS011;20127;48.962;8.342;2023-06-22T01:35:48;28.38;;;14.07;;
33824;SDS011;20127;48.962;8.342;2023-06-22T01:38:50;18.52;;;14.27;;
33824;SDS011;20127;48.962;8.342;2023-06-22T01:41:53;21.58;;;13.77;;
33824;SDS011;20127;48.962;8.342;2023-06-22T01:44:56;21.05;;;15.40;;
33824;SDS011;20127;48.962;8.342;2023-06-22T01:47:59;24.73;;;16.55;;
33824;SDS011;20127;48.962;8.342;2023-06-22T01:51:02;21.02;;;14.30;;
33824;SDS011;20127;48.962;8.342;2023-06-22T01:54:05;21.75;;;14.40;;
33824;SDS011;20127;48.962;8.342;2023-06-22T01:57:07;24.48;;;15.07;;
33824;SDS011;20127;48.962;8.342;2023-06-22T02:00:12;21.65;;;13.93;;
33824;SDS011;20127;48.962;8.342;2023-06-22T02:03:20;19.58;;;15.55;;
33824;SDS011;20127;48.962;8.342;2023-06-22T02:06:25;19.50;;;16.40;;
33824;SDS011;20127;48.962;8.342;2023-06-22T02:09:36;19.95;;;15.38;;
33824;SDS011;20127;48.962;8.342;2023-06-22T02:12:43;21.15;;;16.25;;
33824;SDS011;20127;48.962;8.342;2023-06-22T02:15:47;22.80;;;14.50;;
33824;SDS011;20127;48.962;8.342;2023-06-22T02:18:50;28.35;;;15.98;;
33824;SDS011;20127;48.962;8.342;2023-06-22T02:21:52;23.88;;;16.10;;
33824;SDS011;20127;48.962;8.342;2023-06-22T02:24:54;22.90;;;15.88;;
33824;SDS011;20127;48.962;8.342;2023-06-22T02:27:55;23.42;;;15.93;;
33824;SDS011;20127;48.962;8.342;2023-06-22T02:30:58;20.90;;;15.75;;
33824;SDS011;20127;48.962;8.342;2023-06-22T02:34:00;22.50;;;15.85;;
33824;SDS011;20127;48.962;8.342;2023-06-22T02:37:02;23.35;;;16.50;;
33824;SDS011;20127;48.962;8.342;2023-06-22T02:40:05;20.00;;;15.50;;
33824;SDS011;20127;48.962;8.342;2023-06-22T02:43:08;0.13;;;0.13;;
33824;SDS011;20127;48.962;8.342;2023-06-22T02:46:12;0.03;;;0.03;;
33824;SDS011;20127;48.962;8.342;2023-06-22T02:49:13;0.10;;;0.10;;
33824;SDS011;20127;48.962;8.342;2023-06-22T02:52:15;0.05;;;0.05;;
33824;SDS011;20127;48.962;8.342;2023-06-22T02:55:17;0.10;;;0.10;;
33824;SDS011;20127;48.962;8.342;2023-06-22T02:58:19;0.30;;;0.30;;
33824;SDS011;20127;48.962;8.342;2023-06-22T03:01:22;0.05;;;0.05;;
33824;SDS011;20127;48.962;8.342;2023-06-22T03:04:24;0.20;;;0.20;;
33824;SDS011;20127;48.962;8.342;2023-06-22T03:07:26;0.10;;;0.10;;
33824;SDS011;20127;48.962;8.342;2023-06-22T03:10:30;0.10;;;0.10;;
33824;SDS011;20127;48.962;8.342;2023-06-22T03:13:31;0.45;;;0.45;;
33824;SDS011;20127;48.962;8.342;2023-06-22T03:16:34;0.20;;;0.20;;
33824;SDS011;20127;48.962;8.342;2023-06-22T03:19:36;0.10;;;0.10;;
33824;SDS011;20127;48.962;8.342;2023-06-22T03:22:38;0.10;;;0.10;;
33824;SDS011;20127;48.962;8.342;2023-06-22T03:25:41;0.10;;;0.10;;
33824;SDS011;20127;48.962;8.342;2023-06-22T03:28:44;0.10;;;0.10;;
33824;SDS011;20127;48.962;8.342;2023-06-22T03:31:47;0.45;;;0.45;;
33824;SDS011;20127;48.962;8.342;2023-06-22T03:34:49;0.00;;;0.00;;
33824;SDS011;20127;48.962;8.342;2023-06-22T03:37:50;0.10;;;0.10;;
33824;SDS011;20127;48.962;8.342;2023-06-22T03:40:52;0.20;;;0.20;;
33824;SDS011;20127;48.962;8.342;2023-06-22T03:43:54;0.17;;;0.17;;
33824;SDS011;20127;48.962;8.342;2023-06-22T03:46:57;0.10;;;0.10;;
33824;SDS011;20127;48.962;8.342;2023-06-22T03:49:59;0.10;;;0.10;;
33824;SDS011;20127;48.962;8.342;2023-06-22T03:53:00;0.08;;;0.08;;
33824;SDS011;20127;48.962;8.342;2023-06-22T03:56:02;0.25;;;0.25;;
33824;SDS011;20127;48.962;8.342;2023-06-22T03:59:04;0.10;;;0.10;;
33824;SDS011;20127;48.962;8.342;2023-06-22T04:02:07;0.10;;;0.10;;
33824;SDS011;20127;48.962;8.342;2023-06-22T04:05:09;12.95;;;5.65;;
33824;SDS011;20127;48.962;8.342;2023-06-22T04:08:11;13.13;;;10.45;;
33824;SDS011;20127;48.962;8.342;2023-06-22T04:11:13;13.60;;;9.88;;
33824;SDS011;20127;48.962;8.342;2023-06-22T04:14:15;15.30;;;11.90;;
33824;SDS011;20127;48.962;8.342;2023-06-22T04:17:18;22.88;;;14.30;;
33824;SDS011;20127;48.962;8.342;2023-06-22T04:20:19;19.95;;;14.32;;
33824;SDS011;20127;48.962;8.342;2023-06-22T04:23:21;17.60;;;13.38;;
33824;SDS011;20127;48.962;8.342;2023-06-22T04:26:23;13.43;;;12.02;;
33824;SDS011;20127;48.962;8.342;2023-06-22T04:29:24;16.83;;;12.55;;
33824;SDS011;20127;48.962;8.342;2023-06-22T04:32:30;14.50;;;11.52;;
33824;SDS011;20127;48.962;8.342;2023-06-22T04:35:31;14.25;;;10.68;;
33824;SDS011;20127;48.962;8.342;2023-06-22T04:38:33;11.55;;;10.38;;
33824;SDS011;20127;48.962;8.342;2023-06-22T04:41:35;13.65;;;9.95;;
33824;SDS011;20127;48.962;8.342;2023-06-22T04:47:45;12.20;;;10.13;;
33824;SDS011;20127;48.962;8.342;2023-06-22T04:50:47;17.15;;;11.35;;
33824;SDS011;20127;48.962;8.342;2023-06-22T04:53:49;10.43;;;9.48;;
33824;SDS011;20127;48.962;8.342;2023-06-22T04:56:51;9.48;;;8.55;;
33824;SDS011;20127;48.962;8.342;2023-06-22T04:59:56;17.23;;;10.07;;
33824;SDS011;20127;48.962;8.342;2023-06-22T05:03:12;15.63;;;10.48;;
33824;SDS011;20127;48.962;8.342;2023-06-22T05:06:18;10.93;;;9.50;;
33824;SDS011;20127;48.962;8.342;2023-06-22T05:09:20;10.02;;;8.48;;
33824;SDS011;20127;48.962;8.342;2023-06-22T05:12:22;10.85;;;8.73;;
33824;SDS011;20127;48.962;8.342;2023-06-22T05:15:23;11.82;;;9.05;;
33824;SDS011;20127;48.962;8.342;2023-06-22T05:18:31;10.30;;;8.75;;
33824;SDS011;20127;48.962;8.342;2023-06-22T05:21:34;15.15;;;8.68;;
33824;SDS011;20127;48.962;8.342;2023-06-22T05:24:36;9.85;;;7.93;;
33824;SDS011;20127;48.962;8.342;2023-06-22T05:27:38;9.15;;;8.23;;
33824;SDS011;20127;48.962;8.342;2023-06-22T05:30:40;13.63;;;7.15;;
33824;SDS011;20127;48.962;8.342;2023-06-22T05:33:43;13.05;;;9.80;;
33824;SDS011;20127;48.962;8.342;2023-06-22T05:36:45;9.80;;;7.88;;
33824;SDS011;20127;48.962;8.342;2023-06-22T05:39:47;10.73;;;8.48;;
33824;SDS011;20127;48.962;8.342;2023-06-22T05:42:48;7.95;;;7.15;;
33824;SDS011;20127;48.962;8.342;2023-06-22T05:45:50;8.65;;;7.30;;
33824;SDS011;20127;48.962;8.342;2023-06-22T05:48:53;8.82;;;7.80;;
33824;SDS011;20127;48.962;8.342;2023-06-22T05:51:55;8.57;;;7.68;;
33824;SDS011;20127;48.962;8.342;2023-06-22T05:54:57;10.23;;;7.47;;
33824;SDS011;20127;48.962;8.342;2023-06-22T05:57:58;7.00;;;6.20;;
33824;SDS011;20127;48.962;8.342;2023-06-22T06:01:00;11.40;;;6.57;;
33824;SDS011;20127;48.962;8.342;2023-06-22T06:04:03;8.90;;;7.88;;
33824;SDS011;20127;48.962;8.342;2023-06-22T06:07:08;11.32;;;7.55;;
33824;SDS011;20127;48.962;8.342;2023-06-22T06:10:09;7.00;;;6.30;;
33824;SDS011;20127;48.962;8.342;2023-06-22T06:13:11;14.65;;;6.28;;
33824;SDS011;20127;48.962;8.342;2023-06-22T06:16:13;11.80;;;7.53;;
33824;SDS011;20127;48.962;8.342;2023-06-22T06:19:16;12.63;;;8.13;;
33824;SDS011;20127;48.962;8.342;2023-06-22T06:22:18;9.52;;;6.82;;
33824;SDS011;20127;48.962;8.342;2023-06-22T06:25:21;10.57;;;7.28;;
33824;SDS011;20127;48.962;8.342;2023-06-22T06:28:24;7.85;;;7.13;;
33824;SDS011;20127;48.962;8.342;2023-06-22T06:31:26;8.52;;;6.45;;
33824;SDS011;20127;48.962;8.342;2023-06-22T06:34:30;12.88;;;7.40;;
33824;SDS011;20127;48.962;8.342;2023-06-22T06:37:31;11.07;;;7.30;;
33824;SDS011;20127;48.962;8.342;2023-06-22T06:40:34;9.80;;;5.68;;
33824;SDS011;20127;48.962;8.342;2023-06-22T06:43:36;8.30;;;6.55;;
33824;SDS011;20127;48.962;8.342;2023-06-22T06:46:37;9.20;;;6.50;;
33824;SDS011;20127;48.962;8.342;2023-06-22T06:49:40;10.10;;;7.68;;
33824;SDS011;20127;48.962;8.342;2023-06-22T06:52:42;11.77;;;6.78;;
33824;SDS011;20127;48.962;8.342;2023-06-22T06:55:44;11.10;;;6.50;;
33824;SDS011;20127;48.962;8.342;2023-06-22T06:58:46;12.93;;;6.25;;
33824;SDS011;20127;48.962;8.342;2023-06-22T07:01:48;19.15;;;6.68;;
33824;SDS011;20127;48.962;8.342;2023-06-22T07:04:51;9.27;;;6.05;;
33824;SDS011;20127;48.962;8.342;2023-06-22T07:07:53;10.40;;;6.63;;
33824;SDS011;20127;48.962;8.342;2023-06-22T07:10:55;7.05;;;5.82;;
33824;SDS011;20127;48.962;8.342;2023-06-22T07:13:57;7.72;;;6.13;;
33824;SDS011;20127;48.962;8.342;2023-06-22T07:17:00;7.07;;;5.55;;
33824;SDS011;20127;48.962;8.342;2023-06-22T07:20:04;7.40;;;6.30;;
33824;SDS011;20127;48.962;8.342;2023-06-22T07:23:09;8.60;;;6.32;;
33824;SDS011;20127;48.962;8.342;2023-06-22T07:26:11;10.63;;;6.82;;
33824;SDS011;20127;48.962;8.342;2023-06-22T07:29:13;8.43;;;6.07;;
33824;SDS011;20127;48.962;8.342;2023-06-22T07:32:15;7.32;;;6.53;;
33824;SDS011;20127;48.962;8.342;2023-06-22T07:35:18;6.85;;;6.25;;
33824;SDS011;20127;48.962;8.342;2023-06-22T07:38:20;8.10;;;6.68;;
33824;SDS011;20127;48.962;8.342;2023-06-22T07:41:22;12.07;;;7.47;;
33824;SDS011;20127;48.962;8.342;2023-06-22T07:44:24;10.07;;;6.63;;
33824;SDS011;20127;48.962;8.342;2023-06-22T07:47:26;11.32;;;6.35;;
33824;SDS011;20127;48.962;8.342;2023-06-22T07:50:29;12.90;;;7.40;;
33824;SDS011;20127;48.962;8.342;2023-06-22T07:53:31;10.98;;;7.20;;
33824;SDS011;20127;48.962;8.342;2023-06-22T07:56:33;12.77;;;6.68;;
33824;SDS011;20127;48.962;8.342;2023-06-22T07:59:34;6.80;;;5.78;;
33824;SDS011;20127;48.962;8.342;2023-06-22T08:02:36;7.88;;;5.80;;
33824;SDS011;20127;48.962;8.342;2023-06-22T08:05:39;11.57;;;7.10;;
33824;SDS011;20127;48.962;8.342;2023-06-22T08:08:41;12.05;;;7.10;;
33824;SDS011;20127;48.962;8.342;2023-06-22T08:11:43;7.25;;;5.95;;
33824;SDS011;20127;48.962;8.342;2023-06-22T08:14:45;11.48;;;6.68;;
33824;SDS011;20127;48.962;8.342;2023-06-22T08:17:47;14.38;;;6.78;;
33824;SDS011;20127;48.962;8.342;2023-06-22T08:20:50;9.85;;;6.28;;
33824;SDS011;20127;48.962;8.342;2023-06-22T08:23:51;6.45;;;5.80;;
33824;SDS011;20127;48.962;8.342;2023-06-22T08:26:53;8.15;;;6.63;;
33824;SDS011;20127;48.962;8.342;2023-06-22T08:29:55;10.98;;;6.80;;
33824;SDS011;20127;48.962;8.342;2023-06-22T08:32:58;11.48;;;6.07;;
33824;SDS011;20127;48.962;8.342;2023-06-22T08:36:01;9.88;;;6.05;;
33824;SDS011;20127;48.962;8.342;2023-06-22T08:39:06;9.80;;;7.20;;
33824;SDS011;20127;48.962;8.342;2023-06-22T08:42:08;8.02;;;5.20;;
33824;SDS011;20127;48.962;8.342;2023-06-22T08:45:10;9.25;;;5.25;;
33824;SDS011;20127;48.962;8.342;2023-06-22T08:48:12;8.80;;;6.53;;
33824;SDS011;20127;48.962;8.342;2023-06-22T08:51:15;11.18;;;7.22;;
33824;SDS011;20127;48.962;8.342;2023-06-22T08:54:17;8.50;;;6.82;;
33824;SDS011;20127;48.962;8.342;2023-06-22T08:57:18;7.95;;;5.47;;
33824;SDS011;20127;48.962;8.342;2023-06-22T09:00:20;13.88;;;6.57;;
33824;SDS011;20127;48.962;8.342;2023-06-22T09:03:22;11.30;;;6.28;;
33824;SDS011;20127;48.962;8.342;2023-06-22T09:06:28;8.27;;;5.90;;
33824;SDS011;20127;48.962;8.342;2023-06-22T09:09:31;11.40;;;5.57;;
33824;SDS011;20127;48.962;8.342;2023-06-22T09:12:32;9.48;;;5.53;;
33824;SDS011;20127;48.962;8.342;2023-06-22T09:15:36;7.28;;;5.97;;
33824;SDS011;20127;48.962;8.342;2023-06-22T09:18:38;8.73;;;5.78;;
33824;SDS011;20127;48.962;8.342;2023-06-22T09:21:41;6.95;;;6.15;;
33824;SDS011;20127;48.962;8.342;2023-06-22T09:24:43;8.70;;;5.18;;
33824;SDS011;20127;48.962;8.342;2023-06-22T09:27:45;13.30;;;5.60;;
33824;SDS011;20127;48.962;8.342;2023-06-22T09:30:47;12.82;;;6.43;;
33824;SDS011;20127;48.962;8.342;2023-06-22T09:33:48;6.65;;;5.28;;
33824;SDS011;20127;48.962;8.342;2023-06-22T09:36:52;7.70;;;5.13;;
33824;SDS011;20127;48.962;8.342;2023-06-22T09:39:55;12.63;;;6.55;;
33824;SDS011;20127;48.962;8.342;2023-06-22T09:42:56;13.73;;;5.43;;
33824;SDS011;20127;48.962;8.342;2023-06-22T09:45:58;10.77;;;5.35;;
33824;SDS011;20127;48.962;8.342;2023-06-22T09:49:00;9.18;;;6.25;;
33824;SDS011;20127;48.962;8.342;2023-06-22T09:52:03;9.15;;;6.40;;
33824;SDS011;20127;48.962;8.342;2023-06-22T09:55:05;7.45;;;5.43;;
33824;SDS011;20127;48.962;8.342;2023-06-22T09:58:08;11.15;;;6.50;;
33824;SDS011;20127;48.962;8.342;2023-06-22T10:01:10;9.93;;;5.80;;
33824;SDS011;20127;48.962;8.342;2023-06-22T10:04:12;6.28;;;5.63;;
33824;SDS011;20127;48.962;8.342;2023-06-22T10:07:15;11.07;;;6.05;;
33824;SDS011;20127;48.962;8.342;2023-06-22T10:10:16;11.23;;;6.85;;
33824;SDS011;20127;48.962;8.342;2023-06-22T10:13:18;9.25;;;6.13;;
33824;SDS011;20127;48.962;8.342;2023-06-22T10:16:20;15.40;;;5.88;;
33824;SDS011;20127;48.962;8.342;2023-06-22T10:19:22;8.63;;;5.72;;
33824;SDS011;20127;48.962;8.342;2023-06-22T10:22:25;9.13;;;5.97;;
33824;SDS011;20127;48.962;8.342;2023-06-22T10:25:26;9.50;;;6.70;;
33824;SDS011;20127;48.962;8.342;2023-06-22T10:28:28;8.45;;;6.55;;
33824;SDS011;20127;48.962;8.342;2023-06-22T10:31:30;9.20;;;6.10;;
33824;SDS011;20127;48.962;8.342;2023-06-22T10:34:32;14.27;;;6.20;;
33824;SDS011;20127;48.962;8.342;2023-06-22T10:37:35;9.65;;;6.22;;
33824;SDS011;20127;48.962;8.342;2023-06-22T10:40:37;9.75;;;5.97;;
33824;SDS011;20127;48.962;8.342;2023-06-22T10:43:39;6.40;;;5.47;;
33824;SDS011;20127;48.962;8.342;2023-06-22T10:46:41;6.55;;;5.90;;
33824;SDS011;20127;48.962;8.342;2023-06-22T10:49:42;16.08;;;8.57;;
33824;SDS011;20127;48.962;8.342;2023-06-22T10:52:45;14.25;;;6.72;;
33824;SDS011;20127;48.962;8.342;2023-06-22T10:55:47;7.03;;;5.50;;
33824;SDS011;20127;48.962;8.342;2023-06-22T10:58:49;11.40;;;6.13;;
33824;SDS011;20127;48.962;8.342;2023-06-22T11:01:51;11.55;;;6.25;;
33824;SDS011;20127;48.962;8.342;2023-06-22T11:04:52;12.48;;;6.60;;
33824;SDS011;20127;48.962;8.342;2023-06-22T11:07:55;7.93;;;6.03;;
33824;SDS011;20127;48.962;8.342;2023-06-22T11:10:57;10.60;;;6.40;;
33824;SDS011;20127;48.962;8.342;2023-06-22T11:13:59;9.98;;;5.30;;
33824;SDS011;20127;48.962;8.342;2023-06-22T11:17:00;8.88;;;5.28;;
33824;SDS011;20127;48.962;8.342;2023-06-22T11:20:02;14.45;;;6.55;;
33824;SDS011;20127;48.962;8.342;2023-06-22T11:23:11;8.30;;;6.18;;
33824;SDS011;20127;48.962;8.342;2023-06-22T11:26:13;8.20;;;6.22;;
33824;SDS011;20127;48.962;8.342;2023-06-22T11:29:15;7.60;;;5.95;;
33824;SDS011;20127;48.962;8.342;2023-06-22T11:32:16;10.30;;;6.68;;
33824;SDS011;20127;48.962;8.342;2023-06-22T11:35:18;13.70;;;6.82;;
33824;SDS011;20127;48.962;8.342;2023-06-22T11:38:21;11.52;;;6.40;;
33824;SDS011;20127;48.962;8.342;2023-06-22T11:41:23;14.32;;;6.47;;
33824;SDS011;20127;48.962;8.342;2023-06-22T11:44:24;9.02;;;5.95;;
33824;SDS011;20127;48.962;8.342;2023-06-22T11:47:26;12.25;;;6.18;;
33824;SDS011;20127;48.962;8.342;2023-06-22T11:50:28;8.95;;;7.15;;
33824;SDS011;20127;48.962;8.342;2023-06-22T11:53:35;12.38;;;6.40;;
33824;SDS011;20127;48.962;8.342;2023-06-22T11:56:37;9.80;;;6.05;;
33824;SDS011;20127;48.962;8.342;2023-06-22T11:59:39;9.55;;;6.35;;
33824;SDS011;20127;48.962;8.342;2023-06-22T12:02:40;10.48;;;5.97;;
33824;SDS011;20127;48.962;8.342;2023-06-22T12:05:42;8.85;;;6.32;;
33824;SDS011;20127;48.962;8.342;2023-06-22T12:08:45;15.30;;;7.43;;
33824;SDS011;20127;48.962;8.342;2023-06-22T12:11:47;10.30;;;5.88;;
33824;SDS011;20127;48.962;8.342;2023-06-22T12:14:49;10.20;;;7.03;;
33824;SDS011;20127;48.962;8.342;2023-06-22T12:17:50;9.38;;;6.20;;
33824;SDS011;20127;48.962;8.342;2023-06-22T12:20:52;11.73;;;6.00;;
33824;SDS011;20127;48.962;8.342;2023-06-22T12:23:55;9.98;;;6.32;;
33824;SDS011;20127;48.962;8.342;2023-06-22T12:26:57;13.93;;;6.82;;
33824;SDS011;20127;48.962;8.342;2023-06-22T12:29:58;10.65;;;6.78;;
33824;SDS011;20127;48.962;8.342;2023-06-22T12:33:00;13.18;;;6.65;;
33824;SDS011;20127;48.962;8.342;2023-06-22T12:36:02;13.50;;;9.02;;
33824;SDS011;20127;48.962;8.342;2023-06-22T12:39:06;8.15;;;7.30;;
33824;SDS011;20127;48.962;8.342;2023-06-22T12:42:08;10.77;;;7.18;;
33824;SDS011;20127;48.962;8.342;2023-06-22T12:45:11;13.48;;;7.05;;
33824;SDS011;20127;48.962;8.342;2023-06-22T12:48:13;12.82;;;6.63;;
33824;SDS011;20127;48.962;8.342;2023-06-22T12:51:19;8.40;;;7.10;;
33824;SDS011;20127;48.962;8.342;2023-06-22T12:57:25;8.10;;;7.22;;
33824;SDS011;20127;48.962;8.342;2023-06-22T13:00:26;8.30;;;5.47;;
33824;SDS011;20127;48.962;8.342;2023-06-22T13:03:28;7.97;;;6.72;;
33824;SDS011;20127;48.962;8.342;2023-06-22T13:06:29;13.60;;;6.88;;
33824;SDS011;20127;48.962;8.342;2023-06-22T13:09:32;11.02;;;6.20;;
33824;SDS011;20127;48.962;8.342;2023-06-22T13:12:34;10.43;;;6.13;;
33824;SDS011;20127;48.962;8.342;2023-06-22T13:15:36;13.55;;;7.18;;
33824;SDS011;20127;48.962;8.342;2023-06-22T13:18:38;10.32;;;6.22;;
33824;SDS011;20127;48.962;8.342;2023-06-22T13:21:40;11.35;;;6.38;;
33824;SDS011;20127;48.962;8.342;2023-06-22T13:24:43;15.55;;;7.43;;
33824;SDS011;20127;48.962;8.342;2023-06-22T13:27:44;12.15;;;7.57;;
33824;SDS011;20127;48.962;8.342;2023-06-22T13:30:47;13.65;;;7.35;;
33824;SDS011;20127;48.962;8.342;2023-06-22T13:33:48;10.77;;;7.00;;
33824;SDS011;20127;48.962;8.342;2023-06-22T13:36:52;10.88;;;6.72;;
33824;SDS011;20127;48.962;8.342;2023-06-22T13:39:55;11.73;;;6.82;;
33824;SDS011;20127;48.962;8.342;2023-06-22T13:42:59;17.95;;;7.75;;
33824;SDS011;20127;48.962;8.342;2023-06-22T13:46:01;11.77;;;6.80;;
33824;SDS011;20127;48.962;8.342;2023-06-22T13:49:03;13.63;;;6.38;;
33824;SDS011;20127;48.962;8.342;2023-06-22T13:52:04;15.90;;;7.45;;
33824;SDS011;20127;48.962;8.342;2023-06-22T13:55:11;8.98;;;6.40;;
33824;SDS011;20127;48.962;8.342;2023-06-22T13:58:14;11.05;;;6.57;;
33824;SDS011;20127;48.962;8.342;2023-06-22T14:01:15;12.93;;;6.82;;
33824;SDS011;20127;48.962;8.342;2023-06-22T14:04:17;12.05;;;7.35;;
33824;SDS011;20127;48.962;8.342;2023-06-22T14:07:19;13.15;;;7.35;;
33824;SDS011;20127;48.962;8.342;2023-06-22T14:10:22;11.88;;;8.55;;
33824;SDS011;20127;48.962;8.342;2023-06-22T14:13:24;9.00;;;6.60;;
33824;SDS011;20127;48.962;8.342;2023-06-22T14:16:26;16.60;;;7.40;;
33824;SDS011;20127;48.962;8.342;2023-06-22T14:19:28;9.90;;;7.63;;
33824;SDS011;20127;48.962;8.342;2023-06-22T14:22:30;11.38;;;6.97;;
33824;SDS011;20127;48.962;8.342;2023-06-22T14:25:33;10.63;;;7.43;;
33824;SDS011;20127;48.962;8.342;2023-06-22T14:28:34;9.40;;;7.15;;
33824;SDS011;20127;48.962;8.342;2023-06-22T14:31:38;13.02;;;7.88;;
33824;SDS011;20127;48.962;8.342;2023-06-22T14:34:40;14.93;;;7.20;;
33824;SDS011;20127;48.962;8.342;2023-06-22T14:37:42;18.15;;;8.80;;
33824;SDS011;20127;48.962;8.342;2023-06-22T14:40:45;12.05;;;7.28;;
33824;SDS011;20127;48.962;8.342;2023-06-22T14:43:47;20.92;;;7.00;;
33824;SDS011;20127;48.962;8.342;2023-06-22T14:46:49;10.00;;;6.28;;
33824;SDS011;20127;48.962;8.342;2023-06-22T14:49:50;14.52;;;6.88;;
33824;SDS011;20127;48.962;8.342;2023-06-22T14:52:52;19.10;;;7.78;;
33824;SDS011;20127;48.962;8.342;2023-06-22T14:55:56;15.40;;;6.93;;
33824;SDS011;20127;48.962;8.342;2023-06-22T14:58:59;12.52;;;8.25;;
33824;SDS011;20127;48.962;8.342;2023-06-22T15:02:01;14.18;;;8.40;;
33824;SDS011;20127;48.962;8.342;2023-06-22T15:05:04;15.30;;;8.68;;
33824;SDS011;20127;48.962;8.342;2023-06-22T15:08:06;13.13;;;7.53;;
33824;SDS011;20127;48.962;8.342;2023-06-22T15:11:09;13.68;;;6.93;;
33824;SDS011;20127;48.962;8.342;2023-06-22T15:14:13;15.95;;;6.97;;
33824;SDS011;20127;48.962;8.342;2023-06-22T15:17:15;16.60;;;7.32;;
33824;SDS011;20127;48.962;8.342;2023-06-22T15:20:16;15.65;;;7.85;;
33824;SDS011;20127;48.962;8.342;2023-06-22T15:23:18;9.38;;;6.38;;
33824;SDS011;20127;48.962;8.342;2023-06-22T15:26:21;23.77;;;6.75;;
33824;SDS011;20127;48.962;8.342;2023-06-22T15:29:23;14.75;;;5.85;;
33824;SDS011;20127;48.962;8.342;2023-06-22T15:32:25;10.43;;;5.88;;
33824;SDS011;20127;48.962;8.342;2023-06-22T15:35:27;10.80;;;5.60;;
33824;SDS011;20127;48.962;8.342;2023-06-22T15:38:29;11.07;;;6.28;;
33824;SDS011;20127;48.962;8.342;2023-06-22T15:41:33;9.38;;;5.68;;
33824;SDS011;20127;48.962;8.342;2023-06-22T15:44:34;14.52;;;6.63;;
33824;SDS011;20127;48.962;8.342;2023-06-22T15:47:36;15.63;;;7.10;;
33824;SDS011;20127;48.962;8.342;2023-06-22T15:50:38;7.75;;;5.70;;
33824;SDS011;20127;48.962;8.342;2023-06-22T15:53:40;23.05;;;7.78;;
33824;SDS011;20127;48.962;8.342;2023-06-22T15:56:43;15.23;;;7.32;;
33824;SDS011;20127;48.962;8.342;2023-06-22T15:59:44;14.68;;;7.43;;
33824;SDS011;20127;48.962;8.342;2023-06-22T16:02:46;13.18;;;7.60;;
33824;SDS011;20127;48.962;8.342;2023-06-22T16:05:48;13.25;;;7.97;;
33824;SDS011;20127;48.962;8.342;2023-06-22T16:08:50;12.25;;;7.00;;
33824;SDS011;20127;48.962;8.342;2023-06-22T16:11:53;14.75;;;6.13;;
33824;SDS011;20127;48.962;8.342;2023-06-22T16:14:55;17.42;;;8.05;;
33824;SDS011;20127;48.962;8.342;2023-06-22T16:18:38;18.90;;;8.43;;
33824;SDS011;20127;48.962;8.342;2023-06-22T16:21:37;13.48;;;7.05;;
33824;SDS011;20127;48.962;8.342;2023-06-22T16:24:56;9.82;;;6.55;;
33824;SDS011;20127;48.962;8.342;2023-06-22T16:28:00;12.75;;;7.75;;
33824;SDS011;20127;48.962;8.342;2023-06-22T16:31:19;15.73;;;7.30;;
33824;SDS011;20127;48.962;8.342;2023-06-22T16:34:34;10.57;;;7.07;;
33824;SDS011;20127;48.962;8.342;2023-06-22T16:37:52;9.57;;;5.88;;
33824;SDS011;20127;48.962;8.342;2023-06-22T16:41:01;17.77;;;5.45;;
33824;SDS011;20127;48.962;8.342;2023-06-22T16:44:17;15.88;;;6.15;;
33824;SDS011;20127;48.962;8.342;2023-06-22T16:47:34;11.88;;;4.85;;
33824;SDS011;20127;48.962;8.342;2023-06-22T16:50:44;10.98;;;5.10;;
33824;SDS011;20127;48.962;8.342;2023-06-22T16:54:11;13.50;;;5.32;;
33824;SDS011;20127;48.962;8.342;2023-06-22T16:57:28;14.20;;;5.80;;
33824;SDS011;20127;48.962;8.342;2023-06-22T17:00:43;14.13;;;5.18;;
33824;SDS011;20127;48.962;8.342;2023-06-22T17:04:18;20.20;;;5.15;;
33824;SDS011;20127;48.962;8.342;2023-06-22T17:07:52;13.15;;;5.07;;
33824;SDS011;20127;48.962;8.342;2023-06-22T17:11:08;15.73;;;4.88;;
33824;SDS011;20127;48.962;8.342;2023-06-22T17:14:22;11.10;;;4.88;;
33824;SDS011;20127;48.962;8.342;2023-06-22T17:25:45;11.40;;;4.65;;
33824;SDS011;20127;48.962;8.342;2023-06-22T17:32:35;8.00;;;3.45;;
33824;SDS011;20127;48.962;8.342;2023-06-22T17:35:46;9.18;;;3.20;;
33824;SDS011;20127;48.962;8.342;2023-06-22T17:38:51;14.30;;;4.07;;
33824;SDS011;20127;48.962;8.342;2023-06-22T17:41:57;13.10;;;4.30;;
33824;SDS011;20127;48.962;8.342;2023-06-22T17:45:02;13.18;;;3.35;;
33824;SDS011;20127;48.962;8.342;2023-06-22T17:48:04;12.57;;;3.50;;
33824;SDS011;20127;48.962;8.342;2023-06-22T17:51:10;8.93;;;4.63;;
33824;SDS011;20127;48.962;8.342;2023-06-22T17:54:15;9.27;;;5.45;;
33824;SDS011;20127;48.962;8.342;2023-06-22T17:57:17;12.38;;;3.85;;
33824;SDS011;20127;48.962;8.342;2023-06-22T18:00:19;7.03;;;3.22;;
33824;SDS011;20127;48.962;8.342;2023-06-22T18:03:22;12.55;;;3.33;;
33824;SDS011;20127;48.962;8.342;2023-06-22T18:06:26;9.82;;;4.25;;
33824;SDS011;20127;48.962;8.342;2023-06-22T18:09:28;11.10;;;3.97;;
33824;SDS011;20127;48.962;8.342;2023-06-22T18:12:31;11.40;;;4.00;;
33824;SDS011;20127;48.962;8.342;2023-06-22T18:15:34;10.73;;;3.08;;
33824;SDS011;20127;48.962;8.342;2023-06-22T18:18:38;6.22;;;2.92;;
33824;SDS011;20127;48.962;8.342;2023-06-22T18:21:44;10.48;;;3.30;;
33824;SDS011;20127;48.962;8.342;2023-06-22T18:24:47;6.95;;;2.60;;
33824;SDS011;20127;48.962;8.342;2023-06-22T18:27:50;7.65;;;3.80;;
33824;SDS011;20127;48.962;8.342;2023-06-22T18:30:53;7.95;;;3.15;;